首页
METAR-TAF:

METAR-TAF

机场 :

哥伦布, 喬治亞, 美国

纬度: 32-30-58N, 经度: 084-56-32W, 海拔: 121米

当前天气观测

该预报发布于1小时和3分钟前的23:51 UTC
风速6节,风向北转西北
温度 7°C
湿度 81%
气压 1022 hPa
能見度: 16.1公里
少量云层高于900英尺
阴天层高于1500英尺

METAR: KCSG 102351Z 33006KT 10SM FEW009 OVC015 07/04 A3017 RMK AO2 SLP216 T00670044 10078 20061 51011

时间: 19:54 (00:54 UTC)

预报

该预报发布于1小时和34分钟前的23:20 UTC
预报有效从11日的 00点(UTC)到 11日的 24点(UTC)
风速6节,风向北转西北
能見度: 10公里
多云层高于1500英尺
阴天层高于2200英尺
附近有阵雨
从 11日的 0500点(UTC)
风速4节,风向北转西北
能見度: 10公里
阴天层高于1500英尺
从 11日的 1200点(UTC)
风速3节,风向西北
能見度: 10公里
散云层高于2500英尺
从 11日的 1500点(UTC)
风速5节,风向北转西北
能見度: 10公里
天空无云

TAF: KCSG 102320Z 1100/1124 34006KT P6SM VCSH BKN015 OVC022 FM110500 34004KT P6SM OVC015 FM111200 32003KT P6SM SCT025 FM111500 33005KT P6SM SKC

超过4000个机场的气象观测和天气预报(METAR&TAF报告)。

可查询的气象台以黄色和红色小点在地图上表示。

将鼠标移到小点上方,可查看气象台名称。

然后点击查看天气观测和预报。

如需切换地图:点击带黑十字的绿色按钮放大地图;点击带横线的绿色按钮缩小地图;或者点击绿色箭头查看邻近地区的地图。


METAR-TAF: